Time;durP1;ratioP1;P1;durP2;ratioP2;P2;SDS_P1;SDS_P2;PMS_P1;PMS_P2;Temp;Humidity;BMP_temperature;BMP_pressure;BME280_temperature;BME280_humidity;BME280_pressure;Samples;Min_cycle;Max_cycle;Signal;HPM_P1;HPM_P2
2023/02/10 00:00:42;;;;;;;94.45;41.30;;;7.10;83.30;;;;;;7397090;19;20762;-85
2023/02/10 00:03:11;;;;;;;99.30;40.42;;;7.10;83.10;;;;;;7380299;19;20018;-85
2023/02/10 00:05:40;;;;;;;106.43;42.25;;;7.20;83.20;;;;;;7378235;19;20018;-84
2023/02/10 00:08:08;;;;;;;104.65;43.00;;;7.20;83.00;;;;;;7384796;19;20014;-86
2023/02/10 00:10:37;;;;;;;103.80;41.65;;;7.10;83.00;;;;;;7384221;19;20019;-84
2023/02/10 00:13:06;;;;;;;105.25;43.47;;;7.20;83.30;;;;;;7377415;19;20019;-84
2023/02/10 00:15:39;;;;;;;97.60;43.95;;;7.20;83.20;;;;;;7400396;19;20014;-85
2023/02/10 00:18:08;;;;;;;93.40;41.28;;;7.20;83.20;;;;;;7379285;19;20023;-85
2023/02/10 00:20:37;;;;;;;95.85;40.50;;;7.20;83.40;;;;;;7380062;19;20035;-85
2023/02/10 00:23:07;;;;;;;103.93;41.92;;;7.20;83.30;;;;;;7382233;19;20022;-85
2023/02/10 00:25:37;;;;;;;95.05;41.35;;;7.20;83.40;;;;;;7380662;19;20087;-85
2023/02/10 00:28:06;;;;;;;93.53;41.05;;;7.20;83.40;;;;;;7379423;19;20019;-84
2023/02/10 00:30:39;;;;;;;96.18;41.83;;;7.10;83.60;;;;;;7400640;19;20018;-86
2023/02/10 00:33:08;;;;;;;103.07;41.75;;;7.10;83.80;;;;;;7375163;19;20082;-85
2023/02/10 00:35:38;;;;;;;93.45;41.58;;;7.10;84.10;;;;;;7374632;19;20024;-84
2023/02/10 00:38:07;;;;;;;94.35;40.58;;;7.20;84.40;;;;;;7374626;19;20010;-85
2023/02/10 00:40:36;;;;;;;97.38;43.30;;;7.20;84.40;;;;;;7373403;19;20116;-85
2023/02/10 00:43:05;;;;;;;99.10;42.63;;;7.20;84.20;;;;;;7376118;19;20019;-84
2023/02/10 00:45:33;;;;;;;96.97;42.45;;;7.20;84.10;;;;;;7425360;19;20011;-85
2023/02/10 00:48:05;;;;;;;102.25;43.70;;;7.20;84.10;;;;;;7404884;19;20018;-84
2023/02/10 00:50:33;;;;;;;;;;;7.20;84.20;;;;;;7397580;19;20018;-85
2023/02/10 00:53:02;;;;;;;99.90;41.83;;;7.20;84.40;;;;;;7388219;19;19922;-84
2023/02/10 00:55:31;;;;;;;103.00;43.25;;;7.20;84.80;;;;;;7386274;19;20018;-84
2023/02/10 00:57:59;;;;;;;103.78;42.75;;;7.20;85.00;;;;;;7408625;19;20024;-86
2023/02/10 01:00:28;;;;;;;100.05;43.70;;;7.30;85.10;;;;;;7385078;19;20027;-85
2023/02/10 01:03:00;;;;;;;103.38;43.58;;;7.30;85.10;;;;;;7384886;19;20018;-84
2023/02/10 01:05:31;;;;;;;98.65;44.33;;;7.30;85.20;;;;;;7387513;19;20014;-84
2023/02/10 01:08:00;;;;;;;93.88;41.67;;;7.30;85.30;;;;;;7386495;19;20018;-85
2023/02/10 01:10:29;;;;;;;106.57;44.47;;;7.30;85.40;;;;;;7387826;19;20376;-85
2023/02/10 01:12:58;;;;;;;92.95;44.20;;;7.30;85.40;;;;;;7411425;19;20026;-84
2023/02/10 01:15:26;;;;;;;109.85;44.33;;;7.30;85.70;;;;;;7389683;19;20023;-84
2023/02/10 01:17:55;;;;;;;112.20;45.00;;;7.40;85.80;;;;;;7387302;19;20014;-85
2023/02/10 01:20:27;;;;;;;103.18;44.95;;;7.40;85.60;;;;;;7385179;19;20014;-84
2023/02/10 01:22:58;;;;;;;100.60;43.40;;;7.40;85.70;;;;;;7381116;19;20010;-84
2023/02/10 01:25:26;;;;;;;;;;;7.40;85.70;;;;;;7381538;19;20010;-85
2023/02/10 01:27:55;;;;;;;104.05;41.50;;;7.50;85.70;;;;;;7399294;19;19995;-84
2023/02/10 01:30:24;;;;;;;102.25;42.85;;;7.40;85.50;;;;;;7377209;19;20022;-85
2023/02/10 01:32:55;;;;;;;94.43;43.67;;;7.40;85.60;;;;;;7375303;19;20097;-85
2023/02/10 01:35:24;;;;;;;;;;;7.40;85.90;;;;;;7379186;19;20018;-86
2023/02/10 01:37:54;;;;;;;97.53;41.50;;;7.40;86.20;;;;;;7381293;19;19943;-86
2023/02/10 01:40:27;;;;;;;102.47;43.95;;;7.40;86.30;;;;;;7377729;19;20022;-85
2023/02/10 01:42:56;;;;;;;97.00;43.70;;;7.40;86.40;;;;;;7399685;19;20019;-85
2023/02/10 01:45:30;;;;;;;108.57;43.65;;;7.40;86.30;;;;;;7378859;19;20031;-84
2023/02/10 01:47:59;;;;;;;102.57;43.97;;;7.40;86.40;;;;;;7380160;19;20011;-85
2023/02/10 01:50:34;;;;;;;108.07;45.00;;;7.40;86.40;;;;;;7383933;19;20023;-85
2023/02/10 01:53:03;;;;;;;105.03;47.47;;;7.40;86.50;;;;;;7395374;19;20024;-85
2023/02/10 01:55:37;;;;;;;99.80;44.60;;;7.40;86.60;;;;;;7387310;19;20018;-85
2023/02/10 01:58:09;;;;;;;102.90;44.60;;;7.40;86.70;;;;;;7377524;19;20546;-84
2023/02/10 02:00:37;;;;;;;108.90;46.63;;;7.40;86.90;;;;;;7402192;19;20014;-85
2023/02/10 02:03:08;;;;;;;102.13;46.13;;;7.40;87.00;;;;;;7379313;19;20063;-86
2023/02/10 02:05:41;;;;;;;106.60;47.03;;;7.40;87.00;;;;;;7377100;19;20058;-84
2023/02/10 02:08:13;;;;;;;102.63;46.00;;;7.40;86.90;;;;;;7399135;19;20030;-84
2023/02/10 02:11:03;;;;;;;101.25;45.45;;;7.40;86.90;;;;;;7398998;19;20025;-82
2023/02/10 02:13:45;;;;;;;105.25;45.70;;;7.40;87.00;;;;;;7372890;19;20358;-85
2023/02/10 02:16:23;;;;;;;99.90;43.85;;;7.40;87.10;;;;;;7377009;19;20027;-86
2023/02/10 02:19:00;;;;;;;93.38;43.08;;;7.40;87.20;;;;;;7399256;19;20629;-85
2023/02/10 02:21:57;;;;;;;95.70;44.60;;;7.40;87.50;;;;;;7380781;19;20019;-84
2023/02/10 02:24:47;;;;;;;100.07;44.97;;;7.40;87.50;;;;;;7375497;19;20021;-85
2023/02/10 02:27:48;;;;;;;112.03;42.97;;;7.40;87.50;;;;;;7371783;19;20105;-86
2023/02/10 02:30:52;;;;;;;104.32;47.25;;;7.40;87.60;;;;;;7372650;19;20506;-86
2023/02/10 02:33:26;;;;;;;114.25;48.38;;;7.40;87.80;;;;;;7370136;19;20078;-86
2023/02/10 02:36:03;;;;;;;105.53;46.75;;;7.40;88.10;;;;;;7371912;19;20101;-86
2023/02/10 02:38:32;;;;;;;102.57;43.85;;;7.50;88.30;;;;;;7372105;19;20022;-86
2023/02/10 02:41:01;;;;;;;101.20;45.42;;;7.50;88.30;;;;;;7373024;19;20019;-86
2023/02/10 02:43:30;;;;;;;105.80;46.78;;;7.60;88.50;;;;;;7370447;19;20689;-86
2023/02/10 02:46:06;;;;;;;108.70;46.08;;;7.60;88.70;;;;;;7391278;19;20113;-86
2023/02/10 02:48:53;;;;;;;103.80;45.88;;;7.60;88.80;;;;;;7370465;19;20054;-85
2023/02/10 02:51:33;;;;;;;96.07;44.22;;;7.60;88.80;;;;;;7379895;19;20019;-85
2023/02/10 02:54:08;;;;;;;98.60;45.13;;;7.60;88.70;;;;;;7385848;19;20031;-87
2023/02/10 02:56:42;;;;;;;108.20;47.17;;;7.70;88.80;;;;;;7389635;19;20093;-87
2023/02/10 02:59:17;;;;;;;104.55;45.90;;;7.70;88.60;;;;;;7387621;19;20022;-86
2023/02/10 03:01:53;;;;;;;96.90;44.08;;;7.70;88.70;;;;;;7386786;19;20014;-87
2023/02/10 03:04:29;;;;;;;104.00;45.10;;;7.70;88.80;;;;;;7380222;19;20018;-87
2023/02/10 03:06:57;;;;;;;100.30;45.78;;;7.70;88.80;;;;;;7405045;19;20719;-86
2023/02/10 03:09:27;;;;;;;107.40;45.55;;;7.70;88.60;;;;;;7380640;19;20090;-86
2023/02/10 03:11:56;;;;;;;103.93;44.95;;;7.70;88.50;;;;;;7379381;19;20607;-86
2023/02/10 03:14:25;;;;;;;98.43;46.72;;;7.80;88.50;;;;;;7380925;19;20022;-85
2023/02/10 03:16:56;;;;;;;96.38;45.40;;;7.70;88.40;;;;;;7380604;19;20078;-85
2023/02/10 03:19:28;;;;;;;112.53;47.97;;;7.80;88.80;;;;;;7386323;19;20022;-84
2023/02/10 03:21:57;;;;;;;106.25;48.40;;;7.70;88.80;;;;;;7409818;19;20012;-85
2023/02/10 03:24:25;;;;;;;112.38;50.63;;;7.80;89.10;;;;;;7388918;19;20007;-86
2023/02/10 03:26:54;;;;;;;108.18;48.05;;;7.80;89.60;;;;;;7410622;19;20007;-86
2023/02/10 03:29:23;;;;;;;107.53;50.10;;;7.80;90.00;;;;;;7407927;19;20014;-85
2023/02/10 03:31:52;;;;;;;113.65;49.50;;;7.80;90.00;;;;;;7410143;19;20011;-85
2023/02/10 03:34:21;;;;;;;109.93;49.55;;;7.80;90.40;;;;;;7404027;19;20087;-85
2023/02/10 03:36:52;;;;;;;106.20;48.90;;;7.80;90.10;;;;;;7404767;19;20014;-85
2023/02/10 03:39:21;;;;;;;118.15;51.47;;;7.80;90.20;;;;;;7381735;19;20026;-85
2023/02/10 03:41:49;;;;;;;115.18;51.08;;;7.90;90.20;;;;;;7380905;19;20530;-84
2023/02/10 03:44:18;;;;;;;115.18;52.60;;;7.80;90.30;;;;;;7381683;19;20132;-85
2023/02/10 03:46:48;;;;;;;114.13;53.88;;;7.80;90.40;;;;;;7384235;19;20011;-84
2023/02/10 03:49:17;;;;;;;110.70;51.83;;;7.80;90.50;;;;;;7385095;19;20321;-84
2023/02/10 03:51:46;;;;;;;110.00;50.03;;;7.80;90.50;;;;;;7398417;19;20086;-85
2023/02/10 03:54:17;;;;;;;113.57;49.78;;;7.80;90.60;;;;;;7376600;19;20128;-85
2023/02/10 03:56:45;;;;;;;113.15;52.45;;;7.80;90.50;;;;;;7378395;19;20023;-85
2023/02/10 03:59:14;;;;;;;114.90;51.38;;;7.80;90.60;;;;;;7378831;19;20092;-84
2023/02/10 04:01:43;;;;;;;108.18;50.53;;;7.80;90.70;;;;;;7380486;19;20042;-84
2023/02/10 04:04:12;;;;;;;114.95;53.20;;;7.80;91.10;;;;;;7380909;19;20039;-85
2023/02/10 04:06:40;;;;;;;112.70;52.92;;;7.80;90.80;;;;;;7397010;19;20057;-84
2023/02/10 04:09:09;;;;;;;115.28;53.70;;;7.80;90.90;;;;;;7376444;19;20096;-85
2023/02/10 04:11:41;;;;;;;116.40;52.85;;;7.80;90.90;;;;;;7377886;19;20019;-85
2023/02/10 04:14:09;;;;;;;120.38;53.47;;;7.90;91.00;;;;;;7377498;19;20793;-86
2023/02/10 04:16:39;;;;;;;130.90;58.88;;;7.80;91.00;;;;;;7376853;19;20129;-85
2023/02/10 04:19:08;;;;;;;112.45;53.15;;;7.90;91.00;;;;;;7373199;19;20438;-86
2023/02/10 04:21:36;;;;;;;113.63;54.17;;;7.90;91.00;;;;;;7396228;19;20027;-86
2023/02/10 04:24:06;;;;;;;129.25;53.38;;;7.90;91.00;;;;;;7374240;19;20054;-85
2023/02/10 04:26:34;;;;;;;108.32;51.50;;;7.90;91.00;;;;;;7380287;19;20028;-86
2023/02/10 04:29:06;;;;;;;121.18;53.60;;;7.90;91.00;;;;;;7376060;19;20467;-85
2023/02/10 04:31:34;;;;;;;121.30;53.28;;;7.90;91.10;;;;;;7372804;19;20019;-85
2023/02/10 04:34:03;;;;;;;117.97;53.53;;;7.90;91.10;;;;;;7372720;19;20086;-85
2023/02/10 04:36:32;;;;;;;106.50;50.72;;;7.90;91.10;;;;;;7402629;19;20142;-86
2023/02/10 04:39:01;;;;;;;106.07;49.33;;;7.90;91.10;;;;;;7383316;19;20026;-87
2023/02/10 04:41:30;;;;;;;120.93;53.95;;;7.90;91.10;;;;;;7390499;19;20018;-87
2023/02/10 04:43:59;;;;;;;133.05;53.85;;;7.90;91.10;;;;;;7388935;19;20019;-87
2023/02/10 04:46:30;;;;;;;117.50;53.35;;;7.90;91.10;;;;;;7384599;19;20018;-87
2023/02/10 04:48:58;;;;;;;;;;;7.90;91.20;;;;;;7398498;19;20033;-86
2023/02/10 04:51:27;;;;;;;113.07;50.95;;;7.90;91.20;;;;;;7392425;19;19915;-85
2023/02/10 04:53:56;;;;;;;122.45;52.60;;;7.90;91.10;;;;;;7406769;19;20014;-86
2023/02/10 04:56:25;;;;;;;129.63;53.10;;;7.90;91.20;;;;;;7392369;19;20367;-86
2023/02/10 04:58:53;;;;;;;123.30;54.00;;;7.90;91.20;;;;;;7380625;19;20039;-86
2023/02/10 05:01:22;;;;;;;121.60;53.85;;;7.80;91.20;;;;;;7383568;19;20062;-87
2023/02/10 05:03:53;;;;;;;108.68;49.38;;;7.80;91.20;;;;;;7413648;19;20022;-86
2023/02/10 05:06:22;;;;;;;118.15;51.83;;;7.80;91.30;;;;;;7382490;19;20384;-87
2023/02/10 05:08:51;;;;;;;111.60;49.70;;;7.80;91.40;;;;;;7375772;19;20102;-85
2023/02/10 05:11:20;;;;;;;110.03;50.30;;;7.80;91.40;;;;;;7374805;19;20018;-86
2023/02/10 05:13:49;;;;;;;124.28;55.17;;;7.80;91.40;;;;;;7373541;19;20101;-85
2023/02/10 05:16:19;;;;;;;115.80;52.90;;;7.80;91.50;;;;;;7375109;19;20007;-87
2023/02/10 05:18:47;;;;;;;120.53;52.83;;;7.80;91.60;;;;;;7393862;19;20019;-87
2023/02/10 05:21:19;;;;;;;114.88;52.50;;;7.80;91.60;;;;;;7373530;19;20088;-88
2023/02/10 05:23:48;;;;;;;112.53;49.75;;;7.80;91.60;;;;;;7376660;19;20018;-86
2023/02/10 05:26:16;;;;;;;106.82;49.60;;;7.70;91.60;;;;;;7373386;19;20039;-88
2023/02/10 05:28:45;;;;;;;100.95;46.17;;;7.70;91.70;;;;;;7377223;19;20620;-87
2023/02/10 05:31:14;;;;;;;103.25;47.95;;;7.70;91.60;;;;;;7380790;19;20014;-86
2023/02/10 05:33:43;;;;;;;112.32;48.15;;;7.80;91.70;;;;;;7401696;19;20026;-85
2023/02/10 05:36:12;;;;;;;109.80;47.65;;;7.80;91.70;;;;;;7383740;19;20068;-85
2023/02/10 05:39:22;;;;;;;99.57;43.47;;;7.90;91.70;;;;;;7389493;19;20018;-87
2023/02/10 05:41:33;;;;;;;93.22;43.78;;;7.90;91.60;;;;;;7388614;19;20018;-88
2023/02/10 05:44:02;;;;;;;94.78;43.95;;;7.90;91.50;;;;;;7388015;19;20018;-87
2023/02/10 05:46:31;;;;;;;99.25;45.25;;;7.90;91.50;;;;;;7388115;19;20018;-87
2023/02/10 05:48:59;;;;;;;97.60;43.72;;;7.90;91.60;;;;;;7409644;19;20091;-87
2023/02/10 05:51:28;;;;;;;103.55;46.90;;;7.90;91.60;;;;;;7383135;19;20023;-87
2023/02/10 05:54:00;;;;;;;103.57;47.30;;;8.00;91.60;;;;;;7379167;19;20035;-85
2023/02/10 05:56:28;;;;;;;108.68;49.00;;;8.00;91.60;;;;;;7378717;19;20023;-86
2023/02/10 05:58:57;;;;;;;287.90;63.78;;;8.00;91.60;;;;;;7378144;19;20022;-88
2023/02/10 06:01:26;;;;;;;111.68;47.40;;;8.00;91.90;;;;;;7376555;19;20060;-87
2023/02/10 06:03:55;;;;;;;105.25;45.65;;;8.00;91.90;;;;;;7395326;19;20035;-87
2023/02/10 06:06:24;;;;;;;107.25;47.53;;;8.00;91.80;;;;;;7371114;19;20031;-86
2023/02/10 06:08:55;;;;;;;96.03;40.50;;;7.90;91.80;;;;;;7373550;19;20406;-86
2023/02/10 06:11:27;;;;;;;97.93;40.17;;;7.90;91.70;;;;;;7377694;19;20441;-86
2023/02/10 06:13:55;;;;;;;94.63;40.28;;;7.90;91.70;;;;;;7396567;19;20025;-88
2023/02/10 06:16:24;;;;;;;80.40;37.47;;;8.00;91.70;;;;;;7404584;19;20014;-86
2023/02/10 06:18:53;;;;;;;80.40;36.63;;;8.00;91.60;;;;;;7419867;19;20010;-88
2023/02/10 06:21:22;;;;;;;94.85;37.97;;;8.00;91.70;;;;;;7394053;19;20011;-86
2023/02/10 06:23:51;;;;;;;81.57;37.63;;;8.00;91.70;;;;;;7388416;19;20018;-86
2023/02/10 06:26:20;;;;;;;77.03;36.67;;;8.00;91.80;;;;;;7389791;19;20019;-88
2023/02/10 06:28:51;;;;;;;92.50;39.03;;;8.00;91.80;;;;;;7393013;19;20031;-84
2023/02/10 06:31:20;;;;;;;86.68;39.35;;;8.00;91.80;;;;;;7392216;19;20014;-85
2023/02/10 06:33:48;;;;;;;85.75;38.60;;;8.00;91.70;;;;;;7413280;19;20039;-85
2023/02/10 06:36:17;;;;;;;88.80;40.65;;;8.10;91.70;;;;;;7386609;19;20022;-85
2023/02/10 06:38:47;;;;;;;93.32;43.45;;;8.10;91.70;;;;;;7383107;19;20067;-85
2023/02/10 06:41:16;;;;;;;98.45;40.63;;;8.10;91.70;;;;;;7381999;19;20035;-84
2023/02/10 06:43:45;;;;;;;88.18;40.63;;;8.10;91.70;;;;;;7385063;19;20039;-84
2023/02/10 06:46:16;;;;;;;87.97;40.70;;;8.10;91.70;;;;;;7382199;19;21460;-84
2023/02/10 06:48:45;;;;;;;85.15;38.80;;;8.10;91.70;;;;;;7411299;19;20033;-86
2023/02/10 06:51:13;;;;;;;89.28;38.50;;;8.10;91.70;;;;;;7381788;19;20098;-85
2023/02/10 06:53:43;;;;;;;81.10;35.63;;;8.10;91.80;;;;;;7382562;19;20015;-87
2023/02/10 06:56:12;;;;;;;66.15;32.38;;;8.10;91.70;;;;;;7381782;19;20007;-85
2023/02/10 06:58:41;;;;;;;82.03;34.58;;;8.10;91.80;;;;;;7379058;19;20534;-85
2023/02/10 07:01:10;;;;;;;72.18;34.13;;;8.00;91.70;;;;;;7376695;19;20023;-84
2023/02/10 07:03:41;;;;;;;84.90;37.25;;;8.10;91.80;;;;;;7400416;19;20089;-85
2023/02/10 07:06:10;;;;;;;;;;;8.10;91.70;;;;;;7377772;19;20010;-86
2023/02/10 07:08:39;;;;;;;77.75;36.13;;;8.20;91.80;;;;;;7379502;19;19955;-85
2023/02/10 07:11:07;;;;;;;84.05;39.20;;;8.10;91.70;;;;;;7378294;19;20031;-85
2023/02/10 07:13:36;;;;;;;79.32;36.72;;;8.10;91.70;;;;;;7374154;19;20048;-86
2023/02/10 07:16:05;;;;;;;78.65;35.28;;;8.10;91.80;;;;;;7376748;19;20097;-86
2023/02/10 07:18:34;;;;;;;79.13;35.38;;;8.10;91.80;;;;;;7393641;19;21046;-86
2023/02/10 07:21:05;;;;;;;63.83;30.30;;;8.10;91.80;;;;;;7374715;19;20385;-85
2023/02/10 07:23:34;;;;;;;79.05;32.13;;;8.10;91.80;;;;;;7374343;19;20098;-86
2023/02/10 07:26:06;;;;;;;77.07;33.45;;;8.10;91.80;;;;;;7376327;19;20054;-86
2023/02/10 07:28:36;;;;;;;80.90;33.25;;;8.10;91.90;;;;;;7376984;19;20090;-85
2023/02/10 07:31:05;;;;;;;72.20;35.17;;;8.10;91.90;;;;;;7375233;19;20025;-86
2023/02/10 07:33:34;;;;;;;78.57;35.20;;;8.20;91.80;;;;;;7392520;19;20110;-86
2023/02/10 07:36:05;;;;;;;85.88;37.33;;;8.20;91.80;;;;;;7376653;19;20014;-87
2023/02/10 07:38:34;;;;;;;81.20;37.42;;;8.20;91.70;;;;;;7384010;19;20112;-86
2023/02/10 07:41:03;;;;;;;89.68;37.33;;;8.20;91.60;;;;;;7380536;19;20082;-86
2023/02/10 07:43:32;;;;;;;85.80;37.15;;;8.20;91.60;;;;;;7383265;19;20019;-86
2023/02/10 07:46:01;;;;;;;71.22;34.05;;;8.20;91.60;;;;;;7397057;19;20028;-83
2023/02/10 07:48:30;;;;;;;80.63;35.22;;;8.30;91.60;;;;;;7397896;19;20050;-85
2023/02/10 07:50:58;;;;;;;68.90;32.90;;;8.30;91.60;;;;;;7374307;19;20015;-84
2023/02/10 07:53:30;;;;;;;71.40;32.83;;;8.30;91.60;;;;;;7377648;19;20015;-87
2023/02/10 07:56:00;;;;;;;;;;;8.30;91.40;;;;;;7381163;19;20039;-85
2023/02/10 07:58:29;;;;;;;70.15;33.63;;;8.40;91.50;;;;;;7378409;19;20287;-83
2023/02/10 08:00:58;;;;;;;88.25;36.00;;;8.40;91.50;;;;;;7400701;19;20014;-85
2023/02/10 08:03:27;;;;;;;83.70;35.70;;;8.40;91.50;;;;;;7378889;19;20040;-84
2023/02/10 08:05:56;;;;;;;78.65;36.15;;;8.40;91.50;;;;;;7376994;19;20039;-83
2023/02/10 08:08:25;;;;;;;77.57;34.22;;;8.40;91.50;;;;;;7374891;19;20007;-82
2023/02/10 08:10:57;;;;;;;74.75;33.63;;;8.40;91.50;;;;;;7373465;19;20023;-84
2023/02/10 08:13:27;;;;;;;71.32;32.00;;;8.40;91.50;;;;;;7374242;19;20029;-80
2023/02/10 08:15:56;;;;;;;65.70;30.58;;;8.40;91.40;;;;;;7391970;19;20342;-80
2023/02/10 08:18:24;;;;;;;70.53;33.92;;;8.40;91.40;;;;;;7370371;19;20010;-80
2023/02/10 08:20:53;;;;;;;86.65;34.15;;;8.40;91.40;;;;;;7371724;19;20109;-84
2023/02/10 08:23:22;;;;;;;81.53;33.55;;;8.50;91.50;;;;;;7372188;19;20018;-86
2023/02/10 08:25:51;;;;;;;83.45;33.28;;;8.50;91.50;;;;;;7373373;19;20041;-82
2023/02/10 08:28:23;;;;;;;69.70;34.83;;;8.50;91.50;;;;;;7376350;19;22218;-85
2023/02/10 08:30:52;;;;;;;72.15;32.78;;;8.50;91.50;;;;;;7394519;19;20045;-83
2023/02/10 08:33:20;;;;;;;78.95;32.17;;;8.60;91.50;;;;;;7369639;19;20038;-82
2023/02/10 08:35:49;;;;;;;62.03;29.20;;;8.60;91.30;;;;;;7371889;19;20022;-82
2023/02/10 08:38:18;;;;;;;64.07;29.88;;;8.60;91.20;;;;;;7372603;19;20022;-82
2023/02/10 08:40:47;;;;;;;73.50;31.95;;;8.70;91.20;;;;;;7372278;19;20010;-81
2023/02/10 08:43:16;;;;;;;58.72;26.83;;;8.70;91.00;;;;;;7368125;19;20023;-80
2023/02/10 08:45:47;;;;;;;61.83;24.33;;;8.70;91.00;;;;;;7392705;19;20018;-83
2023/02/10 08:48:16;;;;;;;54.20;23.77;;;8.70;90.90;;;;;;7371032;19;20097;-81
2023/02/10 08:50:44;;;;;;;47.45;20.92;;;8.80;90.80;;;;;;7369121;19;20022;-81
2023/02/10 08:53:13;;;;;;;50.30;20.70;;;8.80;90.30;;;;;;7369781;19;20094;-83
2023/02/10 08:55:42;;;;;;;47.10;24.25;;;8.80;90.00;;;;;;7369508;19;20384;-84
2023/02/10 08:58:11;;;;;;;68.20;26.00;;;8.90;90.00;;;;;;7370110;19;20113;-81
2023/02/10 09:00:40;;;;;;;67.65;26.58;;;8.90;90.00;;;;;;7393396;19;20105;-80
2023/02/10 09:03:11;;;;;;;52.67;22.98;;;8.90;90.20;;;;;;7379021;19;20025;-80
2023/02/10 09:05:40;;;;;;;43.10;19.90;;;8.90;90.00;;;;;;7387098;19;20026;-83
2023/02/10 09:08:10;;;;;;;43.25;19.65;;;8.90;89.40;;;;;;7376854;19;20015;-82
2023/02/10 09:10:41;;;;;;;48.65;18.25;;;8.90;87.60;;;;;;7372519;19;20093;-81
2023/02/10 09:13:10;;;;;;;41.88;18.90;;;8.90;87.30;;;;;;7370748;19;20065;-88
2023/02/10 09:15:40;;;;;;;44.65;17.42;;;8.90;86.90;;;;;;7394034;19;20022;-83
2023/02/10 09:18:12;;;;;;;47.67;18.73;;;8.90;87.10;;;;;;7374104;19;20031;-82
2023/02/10 09:20:41;;;;;;;37.10;18.92;;;9.00;87.30;;;;;;7376028;19;20062;-84
2023/02/10 09:23:10;;;;;;;43.22;19.23;;;9.10;87.20;;;;;;7376580;19;20018;-83
2023/02/10 09:25:38;;;;;;;46.88;19.52;;;9.10;86.70;;;;;;7386289;19;20022;-83
2023/02/10 09:28:08;;;;;;;44.63;16.92;;;9.20;86.90;;;;;;7388299;19;20028;-83
2023/02/10 09:30:37;;;;;;;38.50;17.13;;;9.20;86.40;;;;;;7407788;19;20022;-82
2023/02/10 09:33:06;;;;;;;34.10;17.50;;;9.20;85.80;;;;;;7388915;19;20051;-83
2023/02/10 09:35:40;;;;;;;45.90;17.33;;;9.30;85.70;;;;;;7384261;19;20094;-84
2023/02/10 09:38:09;;;;;;;44.10;17.05;;;9.20;85.20;;;;;;7390829;19;20014;-84
2023/02/10 09:40:50;;;;;;;38.90;15.73;;;9.30;85.50;;;;;;7374935;19;20027;-80
2023/02/10 09:43:31;;;;;;;48.42;15.88;;;9.30;85.40;;;;;;7377797;19;20011;-85
2023/02/10 09:46:08;;;;;;;35.22;15.23;;;9.30;85.20;;;;;;7396663;19;20022;-86
2023/02/10 09:48:51;;;;;;;38.53;14.55;;;9.40;85.10;;;;;;7372443;19;20018;-85
2023/02/10 09:51:37;;;;;;;39.92;15.75;;;9.40;84.50;;;;;;7367113;19;20525;-82
2023/02/10 09:54:11;;;;;;;41.10;15.48;;;9.40;84.70;;;;;;7368006;19;20125;-83
2023/02/10 09:56:42;;;;;;;38.45;15.85;;;9.50;84.80;;;;;;7372962;19;20014;-87
2023/02/10 09:59:17;;;;;;;32.38;14.48;;;9.60;85.00;;;;;;7374199;19;20018;-84
2023/02/10 10:01:51;;;;;;;39.33;14.73;;;9.60;84.90;;;;;;7376584;19;20018;-84
2023/02/10 10:04:22;;;;;;;35.22;15.95;;;9.70;84.70;;;;;;7379925;19;20018;-83
2023/02/10 10:07:02;;;;;;;41.05;16.25;;;9.80;85.40;;;;;;7395107;19;20045;-82
2023/02/10 10:09:38;;;;;;;32.15;13.98;;;9.90;84.60;;;;;;7377648;19;20018;-81
2023/02/10 10:12:10;;;;;;;32.55;14.20;;;9.90;83.80;;;;;;7375512;19;20018;-79
2023/02/10 10:14:41;;;;;;;33.05;14.95;;;9.90;83.90;;;;;;7377625;19;20010;-83
2023/02/10 10:17:30;;;;;;;31.70;15.73;;;10.00;84.00;;;;;;7378888;19;20588;-86
2023/02/10 10:20:24;;;;;;;32.25;15.50;;;10.00;84.00;;;;;;7380509;19;20848;-84
2023/02/10 10:23:06;;;;;;;40.85;15.93;;;10.00;84.10;;;;;;7376443;19;20079;-82
2023/02/10 10:25:52;;;;;;;32.85;16.17;;;10.10;84.00;;;;;;7377223;19;20018;-84
2023/02/10 10:29:03;;;;;;;38.70;16.55;;;10.20;84.20;;;;;;7383413;19;20026;-81
2023/02/10 10:31:43;;;;;;;36.60;17.00;;;10.20;83.40;;;;;;7376135;19;20018;-82
2023/02/10 10:34:20;;;;;;;40.65;16.30;;;10.00;83.70;;;;;;7372736;19;20086;-85
2023/02/10 10:36:58;;;;;;;35.83;16.27;;;10.00;84.30;;;;;;7394436;19;20559;-87
2023/02/10 10:39:36;;;;;;;35.42;16.48;;;10.10;84.60;;;;;;7379553;19;20014;-85
2023/02/10 10:42:23;;;;;;;39.90;16.40;;;10.10;84.20;;;;;;7377495;19;20082;-87
2023/02/10 10:44:57;;;;;;;32.55;15.88;;;10.20;84.40;;;;;;7379174;19;20028;-88
2023/02/10 10:47:38;;;;;;;34.30;15.98;;;10.30;84.30;;;;;;7381922;19;20509;-89
2023/02/10 10:50:15;;;;;;;35.47;16.17;;;10.30;84.10;;;;;;7380679;19;20015;-88
2023/02/10 10:52:51;;;;;;;30.70;16.13;;;10.10;83.50;;;;;;7383136;19;20017;-86
2023/02/10 10:55:30;;;;;;;39.88;16.80;;;10.20;83.80;;;;;;7376725;19;20014;-85
2023/02/10 10:58:06;;;;;;;36.08;16.20;;;10.20;83.80;;;;;;7397392;19;20010;-83
2023/02/10 11:00:36;;;;;;;37.47;16.13;;;10.30;83.80;;;;;;7377564;19;20022;-84
2023/02/10 11:03:12;;;;;;;38.13;15.80;;;10.30;84.10;;;;;;7378876;19;20022;-85
2023/02/10 11:05:42;;;;;;;36.67;15.40;;;10.40;84.10;;;;;;7383690;19;20078;-82
2023/02/10 11:08:26;;;;;;;35.15;16.55;;;10.40;84.70;;;;;;7387269;19;20479;-81
2023/02/10 11:11:00;;;;;;;38.50;16.50;;;10.50;84.30;;;;;;7381782;19;20039;-86
2023/02/10 11:13:32;;;;;;;41.70;16.33;;;10.50;83.90;;;;;;7377552;19;20416;-84
2023/02/10 11:16:04;;;;;;;32.30;15.20;;;10.60;83.90;;;;;;7392976;19;20014;-79
2023/02/10 11:18:33;;;;;;;36.95;16.00;;;10.70;84.10;;;;;;7392322;19;20028;-83
2023/02/10 11:21:04;;;;;;;31.95;15.15;;;10.80;83.90;;;;;;7375465;19;20474;-81
2023/02/10 11:23:33;;;;;;;37.15;16.00;;;10.90;84.20;;;;;;7374194;19;20273;-81
2023/02/10 11:26:07;;;;;;;38.70;15.82;;;11.00;83.60;;;;;;7374933;19;20019;-82
2023/02/10 11:28:40;;;;;;;37.88;15.38;;;10.90;83.30;;;;;;7375619;19;20098;-84
2023/02/10 11:31:37;;;;;;;35.72;15.15;;;11.00;83.50;;;;;;7375291;19;20014;-81
2023/02/10 11:34:16;;;;;;;41.47;15.70;;;11.00;83.50;;;;;;7371303;19;20031;-81
2023/02/10 11:36:47;;;;;;;32.35;14.55;;;11.20;83.70;;;;;;7391746;19;20434;-82
2023/02/10 11:39:23;;;;;;;38.40;15.50;;;11.20;83.60;;;;;;7378647;19;20698;-81
2023/02/10 11:41:55;;;;;;;42.53;14.80;;;11.10;83.70;;;;;;7377922;19;20022;-81
2023/02/10 11:44:27;;;;;;;36.65;15.75;;;11.10;84.00;;;;;;7381791;19;20022;-91
2023/02/10 11:47:04;;;;;;;43.10;15.05;;;11.00;84.80;;;;;;7392521;19;20019;-89
2023/02/10 11:49:34;;;;;;;33.35;15.52;;;11.00;85.00;;;;;;7373498;19;20085;-86
2023/02/10 11:52:04;;;;;;;31.48;14.75;;;11.10;85.00;;;;;;7382711;19;20025;-87
2023/02/10 11:54:35;;;;;;;45.25;16.65;;;11.10;84.40;;;;;;7421673;19;20038;-89
2023/02/10 12:00:09;;;;;;;35.80;15.68;;;11.10;84.40;;;;;;7388388;19;20407;-82
2023/02/10 12:03:08;;;;;;;36.35;14.98;;;11.10;84.40;;;;;;7383250;19;20044;-86
2023/02/10 12:44:42;;;;;;;41.85;16.60;;;11.20;86.20;;;;;;7377501;19;20248;-87
2023/02/10 12:47:25;;;;;;;42.70;15.82;;;11.20;86.80;;;;;;7400805;19;20007;-92
2023/02/10 12:55:07;;;;;;;36.83;16.27;;;11.30;87.70;;;;;;7371688;19;20010;-94
2023/02/10 12:57:45;;;;;;;39.33;16.10;;;11.40;89.10;;;;;;7361976;19;20021;-88
2023/02/10 13:00:26;;;;;;;37.97;16.33;;;11.40;89.60;;;;;;7371681;19;20332;-86
2023/02/10 13:02:59;;;;;;;44.63;16.48;;;11.50;89.80;;;;;;7378688;19;20019;-86
2023/02/10 13:05:34;;;;;;;41.05;15.57;;;11.60;90.20;;;;;;7371038;19;20010;-86
2023/02/10 13:08:08;;;;;;;35.95;15.55;;;11.70;90.10;;;;;;7383417;19;20082;-84
2023/02/10 13:10:42;;;;;;;30.80;14.43;;;11.80;90.00;;;;;;7376902;19;20104;-87
2023/02/10 13:13:17;;;;;;;36.53;14.15;;;11.80;90.10;;;;;;7380022;19;20038;-84
2023/02/10 13:15:54;;;;;;;29.65;13.50;;;11.80;90.00;;;;;;7405513;19;20014;-87
2023/02/10 13:18:26;;;;;;;35.47;15.35;;;11.90;90.10;;;;;;7374255;19;20490;-88
2023/02/10 13:21:02;;;;;;;37.90;15.32;;;12.00;90.00;;;;;;7383753;19;20057;-83
2023/02/10 13:23:40;;;;;;;31.67;15.52;;;12.00;89.50;;;;;;7386191;19;20011;-84
2023/02/10 13:26:37;;;;;;;35.63;14.88;;;12.10;88.80;;;;;;7379788;19;20031;-87
2023/02/10 13:29:19;;;;;;;40.08;16.65;;;12.10;88.30;;;;;;7373452;19;20015;-82
2023/02/10 13:31:57;;;;;;;;;;;12.00;87.60;;;;;;7370467;19;20011;-87
2023/02/10 13:34:28;;;;;;;29.58;15.57;;;12.10;87.70;;;;;;7376189;19;19922;-85
2023/02/10 13:36:59;;;;;;;;;;;12.10;87.30;;;;;;7399349;19;20022;-84
2023/02/10 13:39:30;;;;;;;39.55;15.07;;;12.20;87.50;;;;;;7375294;19;19927;-85
2023/02/10 13:42:11;;;;;;;32.28;15.90;;;12.20;87.00;;;;;;7376115;19;20043;-90
2023/02/10 13:44:43;;;;;;;33.40;14.45;;;12.20;86.90;;;;;;7372031;19;20035;-86